Ronnie Rogers — WDD2270 — position and weather

sailwx.info

Track history (hours):
 
Tides and Currents Weather Stations Pressure Air Temp Water Temp Dewpoint Dewpoint Depression Visibility Wind Speed Wind Dir Waves Ship Positions

Ronnie Rogers

Owner: Florida Marine Transporters, Inc., Mandeville, LA. More information available from US FCC via Universal Licensing System and Coast Guard Vessel Documentation Center.

Last reported at 2014-Oct-31 12:26 UTC. Time now 2014-Nov-01 02:04 UTC.
Position N 29°44' W 095°12'.

Length 29 m; draft 3 m.

Type: Towing. MMSI: 367113160.

Date/timePositionNaut miles runAvg speedWind from/ knotsBaromVisibWave heightAir tempDewpointWater temp
2014-Oct-31 12:26N 29°44' W 095°12'0 0.0
2014-Oct-31 11:33N 29°44' W 095°12'0 0.0
2014-Oct-31 00:29N 29°44' W 095°12'0 0.1
2014-Oct-30 23:32N 29°44' W 095°12'4 3.8
2014-Oct-30 22:33N 29°44' W 095°08'3 3.5
2014-Oct-30 21:32N 29°46' W 095°05'1 1.2
2014-Oct-30 20:33N 29°47' W 095°04'0 0.0
2014-Oct-30 19:33N 29°47' W 095°04'2 0.1
2014-Oct-30 02:06N 29°46' W 095°06'0 0.0
2014-Oct-30 01:33N 29°46' W 095°06'0 0.0
2014-Oct-30 00:33N 29°46' W 095°06'1 0.6
2014-Oct-29 23:33N 29°46' W 095°06'1 0.4
2014-Oct-29 22:24N 29°45' W 095°06'1 0.7
2014-Oct-29 21:33N 29°46' W 095°05'1 0.1
2014-Oct-29 16:08N 29°46' W 095°06'2 1.3
2014-Oct-29 14:29N 29°47' W 095°04'2 2.1
2014-Oct-29 13:33N 29°45' W 095°04'6 6.3
2014-Oct-29 12:33N 29°41' W 094°59'7 7.1
2014-Oct-29 11:33N 29°34' W 094°55'7 7.3
2014-Oct-29 10:33N 29°28' W 094°51'7 7.3
2014-Oct-29 09:33N 29°21' W 094°49'18 5.8
2014-Oct-29 06:27N 29°11' W 095°06'  
Track history (hours):
 
Tides and Currents Weather Stations Pressure Air Temp Water Temp Dewpoint Dewpoint Depression Visibility Wind Speed Wind Dir Waves Ship Positions

Ronnie Rogers

Owner: Florida Marine Transporters, Inc., Mandeville, LA. More information available from US FCC via Universal Licensing System and Coast Guard Vessel Documentation Center.

Last reported at 2014-Oct-31 12:26 UTC. Time now 2014-Nov-01 02:04 UTC.
Position N 29°44' W 095°12'.

Length 29 m; draft 3 m.

Type: Towing. MMSI: 367113160.

Date/timePositionNaut miles runAvg speedWind from/ knotsBaromVisibWave heightAir tempDewpointWater temp
2014-Oct-31 12:26N 29°44' W 095°12'0 0.0
2014-Oct-31 11:33N 29°44' W 095°12'0 0.0
2014-Oct-31 00:29N 29°44' W 095°12'0 0.1
2014-Oct-30 23:32N 29°44' W 095°12'4 3.8
2014-Oct-30 22:33N 29°44' W 095°08'3 3.5
2014-Oct-30 21:32N 29°46' W 095°05'1 1.2
2014-Oct-30 20:33N 29°47' W 095°04'0 0.0
2014-Oct-30 19:33N 29°47' W 095°04'2 0.1
2014-Oct-30 02:06N 29°46' W 095°06'0 0.0
2014-Oct-30 01:33N 29°46' W 095°06'0 0.0
2014-Oct-30 00:33N 29°46' W 095°06'1 0.6
2014-Oct-29 23:33N 29°46' W 095°06'1 0.4
2014-Oct-29 22:24N 29°45' W 095°06'1 0.7
2014-Oct-29 21:33N 29°46' W 095°05'1 0.1
2014-Oct-29 16:08N 29°46' W 095°06'2 1.3
2014-Oct-29 14:29N 29°47' W 095°04'2 2.1
2014-Oct-29 13:33N 29°45' W 095°04'6 6.3
2014-Oct-29 12:33N 29°41' W 094°59'7 7.1
2014-Oct-29 11:33N 29°34' W 094°55'7 7.3
2014-Oct-29 10:33N 29°28' W 094°51'7 7.3
2014-Oct-29 09:33N 29°21' W 094°49'18 5.8
2014-Oct-29 06:27N 29°11' W 095°06'  

Dump ship's entire track history